sensor_id;sensor_type;location;lat;lon;timestamp;temperature;humidity
5415;DHT22;2730;51.512;7.504;2023-04-01T00:01:04;10.10;99.90
5415;DHT22;2730;51.512;7.504;2023-04-01T00:03:32;10.00;99.90
5415;DHT22;2730;51.512;7.504;2023-04-01T00:06:00;10.00;99.90
5415;DHT22;2730;51.512;7.504;2023-04-01T00:08:27;9.90;99.90
5415;DHT22;2730;51.512;7.504;2023-04-01T00:10:54;9.90;99.90
5415;DHT22;2730;51.512;7.504;2023-04-01T00:13:23;9.80;99.90
5415;DHT22;2730;51.512;7.504;2023-04-01T00:15:52;9.80;99.90
5415;DHT22;2730;51.512;7.504;2023-04-01T00:18:19;9.80;99.90
5415;DHT22;2730;51.512;7.504;2023-04-01T00:20:47;9.80;99.90
5415;DHT22;2730;51.512;7.504;2023-04-01T00:23:15;9.80;99.90
5415;DHT22;2730;51.512;7.504;2023-04-01T00:25:42;9.80;99.90
5415;DHT22;2730;51.512;7.504;2023-04-01T00:28:10;9.70;99.90
5415;DHT22;2730;51.512;7.504;2023-04-01T00:30:38;9.80;99.90
5415;DHT22;2730;51.512;7.504;2023-04-01T00:33:05;9.80;99.90
5415;DHT22;2730;51.512;7.504;2023-04-01T00:35:32;9.80;99.90
5415;DHT22;2730;51.512;7.504;2023-04-01T00:37:59;9.70;99.90
5415;DHT22;2730;51.512;7.504;2023-04-01T00:40:28;9.70;99.90
5415;DHT22;2730;51.512;7.504;2023-04-01T00:42:55;9.60;99.90
5415;DHT22;2730;51.512;7.504;2023-04-01T00:45:29;9.70;99.90
5415;DHT22;2730;51.512;7.504;2023-04-01T00:47:59;9.70;99.90
5415;DHT22;2730;51.512;7.504;2023-04-01T00:50:29;9.70;99.90
5415;DHT22;2730;51.512;7.504;2023-04-01T00:52:58;9.70;99.90
5415;DHT22;2730;51.512;7.504;2023-04-01T00:55:27;9.80;99.90
5415;DHT22;2730;51.512;7.504;2023-04-01T00:57:55;9.70;99.90
5415;DHT22;2730;51.512;7.504;2023-04-01T01:00:23;9.70;99.90
5415;DHT22;2730;51.512;7.504;2023-04-01T01:02:52;9.60;99.90
5415;DHT22;2730;51.512;7.504;2023-04-01T01:05:25;9.60;99.90
5415;DHT22;2730;51.512;7.504;2023-04-01T01:08:01;9.60;99.90
5415;DHT22;2730;51.512;7.504;2023-04-01T01:10:32;9.60;99.90
5415;DHT22;2730;51.512;7.504;2023-04-01T01:13:05;9.60;99.90
5415;DHT22;2730;51.512;7.504;2023-04-01T01:15:39;9.60;99.90
5415;DHT22;2730;51.512;7.504;2023-04-01T01:18:13;9.60;99.90
5415;DHT22;2730;51.512;7.504;2023-04-01T01:24:03;9.60;99.90
5415;DHT22;2730;51.512;7.504;2023-04-01T01:26:42;9.50;99.90
5415;DHT22;2730;51.512;7.504;2023-04-01T01:29:22;9.50;99.90
5415;DHT22;2730;51.512;7.504;2023-04-01T01:31:57;9.60;99.90
5415;DHT22;2730;51.512;7.504;2023-04-01T01:34:32;9.50;99.90
5415;DHT22;2730;51.512;7.504;2023-04-01T01:37:07;9.50;99.90
5415;DHT22;2730;51.512;7.504;2023-04-01T01:39:36;9.60;99.90
5415;DHT22;2730;51.512;7.504;2023-04-01T01:42:06;9.50;99.90
5415;DHT22;2730;51.512;7.504;2023-04-01T01:44:35;9.50;99.90
5415;DHT22;2730;51.512;7.504;2023-04-01T01:47:03;9.50;99.90
5415;DHT22;2730;51.512;7.504;2023-04-01T01:49:32;9.50;99.90
5415;DHT22;2730;51.512;7.504;2023-04-01T01:52:00;9.50;99.90
5415;DHT22;2730;51.512;7.504;2023-04-01T01:54:28;9.50;99.90
5415;DHT22;2730;51.512;7.504;2023-04-01T01:57:01;9.50;99.90
5415;DHT22;2730;51.512;7.504;2023-04-01T01:59:33;9.50;99.90
5415;DHT22;2730;51.512;7.504;2023-04-01T02:02:02;9.50;99.90
5415;DHT22;2730;51.512;7.504;2023-04-01T02:04:34;9.50;99.90
5415;DHT22;2730;51.512;7.504;2023-04-01T02:07:03;9.50;99.90
5415;DHT22;2730;51.512;7.504;2023-04-01T02:09:33;9.50;99.90
5415;DHT22;2730;51.512;7.504;2023-04-01T02:12:03;9.50;99.90
5415;DHT22;2730;51.512;7.504;2023-04-01T02:14:39;9.50;99.90
5415;DHT22;2730;51.512;7.504;2023-04-01T02:17:08;9.50;99.90
5415;DHT22;2730;51.512;7.504;2023-04-01T02:19:38;9.50;99.90
5415;DHT22;2730;51.512;7.504;2023-04-01T02:22:10;9.50;99.90
5415;DHT22;2730;51.512;7.504;2023-04-01T02:24:40;9.50;99.90
5415;DHT22;2730;51.512;7.504;2023-04-01T02:27:09;9.40;99.90
5415;DHT22;2730;51.512;7.504;2023-04-01T02:29:36;9.40;99.90
5415;DHT22;2730;51.512;7.504;2023-04-01T02:32:03;9.30;99.90
5415;DHT22;2730;51.512;7.504;2023-04-01T02:34:31;9.30;99.90
5415;DHT22;2730;51.512;7.504;2023-04-01T02:36:59;9.30;99.90
5415;DHT22;2730;51.512;7.504;2023-04-01T02:39:26;9.30;99.90
5415;DHT22;2730;51.512;7.504;2023-04-01T02:41:54;9.30;99.90
5415;DHT22;2730;51.512;7.504;2023-04-01T02:44:20;9.30;99.90
5415;DHT22;2730;51.512;7.504;2023-04-01T02:46:47;9.40;99.90
5415;DHT22;2730;51.512;7.504;2023-04-01T02:49:14;9.40;99.90
5415;DHT22;2730;51.512;7.504;2023-04-01T02:51:44;9.40;99.90
5415;DHT22;2730;51.512;7.504;2023-04-01T02:54:10;9.40;99.90
5415;DHT22;2730;51.512;7.504;2023-04-01T02:56:37;9.40;99.90
5415;DHT22;2730;51.512;7.504;2023-04-01T02:59:05;9.40;99.90
5415;DHT22;2730;51.512;7.504;2023-04-01T03:01:32;9.40;99.90
5415;DHT22;2730;51.512;7.504;2023-04-01T03:03:59;9.40;99.90
5415;DHT22;2730;51.512;7.504;2023-04-01T03:06:25;9.40;99.90
5415;DHT22;2730;51.512;7.504;2023-04-01T03:08:52;9.40;99.90
5415;DHT22;2730;51.512;7.504;2023-04-01T03:11:19;9.40;99.90
5415;DHT22;2730;51.512;7.504;2023-04-01T03:13:46;9.30;99.90
5415;DHT22;2730;51.512;7.504;2023-04-01T03:16:15;9.30;99.90
5415;DHT22;2730;51.512;7.504;2023-04-01T03:18:42;9.30;99.90
5415;DHT22;2730;51.512;7.504;2023-04-01T03:21:15;9.30;99.90
5415;DHT22;2730;51.512;7.504;2023-04-01T03:23:42;9.30;99.90
5415;DHT22;2730;51.512;7.504;2023-04-01T03:26:09;9.40;99.90
5415;DHT22;2730;51.512;7.504;2023-04-01T03:28:36;9.30;99.90
5415;DHT22;2730;51.512;7.504;2023-04-01T03:31:03;9.30;99.90
5415;DHT22;2730;51.512;7.504;2023-04-01T03:33:31;9.30;99.90
5415;DHT22;2730;51.512;7.504;2023-04-01T03:35:58;9.30;99.90
5415;DHT22;2730;51.512;7.504;2023-04-01T03:38:25;9.30;99.90
5415;DHT22;2730;51.512;7.504;2023-04-01T03:40:52;9.30;99.90
5415;DHT22;2730;51.512;7.504;2023-04-01T03:43:19;9.30;99.90
5415;DHT22;2730;51.512;7.504;2023-04-01T03:45:46;9.30;99.90
5415;DHT22;2730;51.512;7.504;2023-04-01T03:48:13;9.30;99.90
5415;DHT22;2730;51.512;7.504;2023-04-01T03:50:42;9.30;99.90
5415;DHT22;2730;51.512;7.504;2023-04-01T03:53:09;9.30;99.90
5415;DHT22;2730;51.512;7.504;2023-04-01T03:55:36;9.30;99.90
5415;DHT22;2730;51.512;7.504;2023-04-01T03:58:03;9.30;99.90
5415;DHT22;2730;51.512;7.504;2023-04-01T04:00:30;9.20;99.90
5415;DHT22;2730;51.512;7.504;2023-04-01T04:02:58;9.20;99.90
5415;DHT22;2730;51.512;7.504;2023-04-01T04:05:26;9.20;99.90
5415;DHT22;2730;51.512;7.504;2023-04-01T04:07:54;9.20;99.90
5415;DHT22;2730;51.512;7.504;2023-04-01T04:10:21;9.20;99.90
5415;DHT22;2730;51.512;7.504;2023-04-01T04:12:51;9.20;99.90
5415;DHT22;2730;51.512;7.504;2023-04-01T04:15:18;9.20;99.90
5415;DHT22;2730;51.512;7.504;2023-04-01T04:17:45;9.20;99.90
5415;DHT22;2730;51.512;7.504;2023-04-01T04:20:12;9.20;99.90
5415;DHT22;2730;51.512;7.504;2023-04-01T04:22:39;9.10;99.90
5415;DHT22;2730;51.512;7.504;2023-04-01T04:25:08;9.10;99.90
5415;DHT22;2730;51.512;7.504;2023-04-01T04:27:35;9.20;99.90
5415;DHT22;2730;51.512;7.504;2023-04-01T04:30:02;9.10;99.90
5415;DHT22;2730;51.512;7.504;2023-04-01T04:32:30;9.10;99.90
5415;DHT22;2730;51.512;7.504;2023-04-01T04:34:57;9.00;99.90
5415;DHT22;2730;51.512;7.504;2023-04-01T04:37:24;9.00;99.90
5415;DHT22;2730;51.512;7.504;2023-04-01T04:39:51;9.00;99.90
5415;DHT22;2730;51.512;7.504;2023-04-01T04:42:19;9.00;99.90
5415;DHT22;2730;51.512;7.504;2023-04-01T04:44:46;9.10;99.90
5415;DHT22;2730;51.512;7.504;2023-04-01T04:47:13;9.10;99.90
5415;DHT22;2730;51.512;7.504;2023-04-01T04:49:39;9.10;99.90
5415;DHT22;2730;51.512;7.504;2023-04-01T04:52:06;9.10;99.90
5415;DHT22;2730;51.512;7.504;2023-04-01T04:54:33;9.10;99.90
5415;DHT22;2730;51.512;7.504;2023-04-01T04:57:00;9.10;99.90
5415;DHT22;2730;51.512;7.504;2023-04-01T04:59:28;9.10;99.90
5415;DHT22;2730;51.512;7.504;2023-04-01T05:01:55;9.10;99.90
5415;DHT22;2730;51.512;7.504;2023-04-01T05:04:21;9.20;99.90
5415;DHT22;2730;51.512;7.504;2023-04-01T05:06:48;9.20;99.90
5415;DHT22;2730;51.512;7.504;2023-04-01T05:09:15;9.20;99.90
5415;DHT22;2730;51.512;7.504;2023-04-01T05:11:42;9.30;99.90
5415;DHT22;2730;51.512;7.504;2023-04-01T05:14:12;9.30;99.90
5415;DHT22;2730;51.512;7.504;2023-04-01T05:16:40;9.30;99.90
5415;DHT22;2730;51.512;7.504;2023-04-01T05:19:07;9.30;99.90
5415;DHT22;2730;51.512;7.504;2023-04-01T05:21:34;9.30;99.90
5415;DHT22;2730;51.512;7.504;2023-04-01T05:24:01;9.30;99.90
5415;DHT22;2730;51.512;7.504;2023-04-01T05:26:27;9.30;99.90
5415;DHT22;2730;51.512;7.504;2023-04-01T05:28:54;9.30;99.90
5415;DHT22;2730;51.512;7.504;2023-04-01T05:31:21;9.30;99.90
5415;DHT22;2730;51.512;7.504;2023-04-01T05:33:50;9.30;99.90
5415;DHT22;2730;51.512;7.504;2023-04-01T05:36:17;9.40;99.90
5415;DHT22;2730;51.512;7.504;2023-04-01T05:38:44;9.30;99.90
5415;DHT22;2730;51.512;7.504;2023-04-01T05:41:12;9.40;99.90
5415;DHT22;2730;51.512;7.504;2023-04-01T05:43:41;9.40;99.90
5415;DHT22;2730;51.512;7.504;2023-04-01T05:46:07;9.40;99.90
5415;DHT22;2730;51.512;7.504;2023-04-01T05:48:35;9.40;99.90
5415;DHT22;2730;51.512;7.504;2023-04-01T05:51:04;9.40;99.90
5415;DHT22;2730;51.512;7.504;2023-04-01T05:53:30;9.40;99.90
5415;DHT22;2730;51.512;7.504;2023-04-01T05:56:02;9.50;99.90
5415;DHT22;2730;51.512;7.504;2023-04-01T05:58:29;9.50;99.90
5415;DHT22;2730;51.512;7.504;2023-04-01T06:01:00;9.50;99.90
5415;DHT22;2730;51.512;7.504;2023-04-01T06:03:27;9.50;99.90
5415;DHT22;2730;51.512;7.504;2023-04-01T06:05:54;9.50;99.90
5415;DHT22;2730;51.512;7.504;2023-04-01T06:08:23;9.60;99.90
5415;DHT22;2730;51.512;7.504;2023-04-01T06:11:01;9.60;99.90
5415;DHT22;2730;51.512;7.504;2023-04-01T06:13:43;9.70;99.90
5415;DHT22;2730;51.512;7.504;2023-04-01T06:16:20;9.70;99.90
5415;DHT22;2730;51.512;7.504;2023-04-01T06:19:03;9.80;99.90
5415;DHT22;2730;51.512;7.504;2023-04-01T06:21:49;9.80;99.90
5415;DHT22;2730;51.512;7.504;2023-04-01T06:24:33;9.80;99.90
5415;DHT22;2730;51.512;7.504;2023-04-01T06:27:10;9.80;99.90
5415;DHT22;2730;51.512;7.504;2023-04-01T06:29:55;9.80;99.90
5415;DHT22;2730;51.512;7.504;2023-04-01T06:32:44;9.90;99.90
5415;DHT22;2730;51.512;7.504;2023-04-01T06:35:31;9.90;99.90
5415;DHT22;2730;51.512;7.504;2023-04-01T06:38:17;9.90;99.90
5415;DHT22;2730;51.512;7.504;2023-04-01T06:43:51;9.90;99.90
5415;DHT22;2730;51.512;7.504;2023-04-01T06:46:26;9.90;99.90
5415;DHT22;2730;51.512;7.504;2023-04-01T06:49:12;10.00;99.90
5415;DHT22;2730;51.512;7.504;2023-04-01T06:51:48;10.10;99.90
5415;DHT22;2730;51.512;7.504;2023-04-01T06:54:20;10.10;99.90
5415;DHT22;2730;51.512;7.504;2023-04-01T06:56:53;10.20;99.90
5415;DHT22;2730;51.512;7.504;2023-04-01T06:59:26;10.20;99.90
5415;DHT22;2730;51.512;7.504;2023-04-01T07:01:56;10.30;99.90
5415;DHT22;2730;51.512;7.504;2023-04-01T07:04:29;10.20;99.90
5415;DHT22;2730;51.512;7.504;2023-04-01T07:06:58;10.30;99.90
5415;DHT22;2730;51.512;7.504;2023-04-01T07:09:28;10.30;99.90
5415;DHT22;2730;51.512;7.504;2023-04-01T07:12:01;10.40;99.90
5415;DHT22;2730;51.512;7.504;2023-04-01T07:14:32;10.40;99.90
5415;DHT22;2730;51.512;7.504;2023-04-01T07:17:06;10.40;99.90
5415;DHT22;2730;51.512;7.504;2023-04-01T07:19:41;10.30;99.90
5415;DHT22;2730;51.512;7.504;2023-04-01T07:22:18;10.30;99.90
5415;DHT22;2730;51.512;7.504;2023-04-01T07:24:48;10.20;99.90
5415;DHT22;2730;51.512;7.504;2023-04-01T07:27:16;10.10;99.90
5415;DHT22;2730;51.512;7.504;2023-04-01T07:29:43;10.10;99.90
5415;DHT22;2730;51.512;7.504;2023-04-01T07:32:17;10.20;99.90
5415;DHT22;2730;51.512;7.504;2023-04-01T07:34:54;10.20;99.90
5415;DHT22;2730;51.512;7.504;2023-04-01T07:37:28;10.20;99.90
5415;DHT22;2730;51.512;7.504;2023-04-01T07:40:03;10.20;99.90
5415;DHT22;2730;51.512;7.504;2023-04-01T07:42:45;10.30;99.90
5415;DHT22;2730;51.512;7.504;2023-04-01T07:45:19;10.30;99.90
5415;DHT22;2730;51.512;7.504;2023-04-01T07:47:56;10.30;99.90
5415;DHT22;2730;51.512;7.504;2023-04-01T07:50:28;10.30;99.90
5415;DHT22;2730;51.512;7.504;2023-04-01T07:53:06;10.30;99.90
5415;DHT22;2730;51.512;7.504;2023-04-01T07:55:39;10.40;99.90
5415;DHT22;2730;51.512;7.504;2023-04-01T07:58:15;10.40;99.90
5415;DHT22;2730;51.512;7.504;2023-04-01T08:00:49;10.40;99.90
5415;DHT22;2730;51.512;7.504;2023-04-01T08:03:31;10.40;99.90
5415;DHT22;2730;51.512;7.504;2023-04-01T08:06:05;10.40;99.90
5415;DHT22;2730;51.512;7.504;2023-04-01T08:08:42;10.40;99.90
5415;DHT22;2730;51.512;7.504;2023-04-01T08:11:21;10.50;99.90
5415;DHT22;2730;51.512;7.504;2023-04-01T08:13:56;10.60;99.90
5415;DHT22;2730;51.512;7.504;2023-04-01T08:16:33;10.60;99.90
5415;DHT22;2730;51.512;7.504;2023-04-01T08:19:09;10.50;99.90
5415;DHT22;2730;51.512;7.504;2023-04-01T08:21:43;10.50;99.90
5415;DHT22;2730;51.512;7.504;2023-04-01T08:24:17;10.50;99.90
5415;DHT22;2730;51.512;7.504;2023-04-01T08:26:48;10.40;99.90
5415;DHT22;2730;51.512;7.504;2023-04-01T08:29:20;10.40;99.90
5415;DHT22;2730;51.512;7.504;2023-04-01T08:31:51;10.50;99.90
5415;DHT22;2730;51.512;7.504;2023-04-01T08:34:23;10.50;99.90
5415;DHT22;2730;51.512;7.504;2023-04-01T08:36:52;10.50;99.90
5415;DHT22;2730;51.512;7.504;2023-04-01T08:39:24;10.60;99.90
5415;DHT22;2730;51.512;7.504;2023-04-01T08:42:13;10.80;99.90
5415;DHT22;2730;51.512;7.504;2023-04-01T08:45:02;10.90;99.90
5415;DHT22;2730;51.512;7.504;2023-04-01T08:47:59;10.90;99.90
5415;DHT22;2730;51.512;7.504;2023-04-01T08:51:03;10.90;99.90
5415;DHT22;2730;51.512;7.504;2023-04-01T08:53:47;11.00;99.90
5415;DHT22;2730;51.512;7.504;2023-04-01T08:56:19;11.00;99.90
5415;DHT22;2730;51.512;7.504;2023-04-01T08:59:11;10.90;99.90
5415;DHT22;2730;51.512;7.504;2023-04-01T09:04:53;10.80;99.90
5415;DHT22;2730;51.512;7.504;2023-04-01T09:07:35;10.70;99.90
5415;DHT22;2730;51.512;7.504;2023-04-01T09:10:26;10.60;99.90
5415;DHT22;2730;51.512;7.504;2023-04-01T09:13:03;10.60;99.90
5415;DHT22;2730;51.512;7.504;2023-04-01T09:22:09;10.60;99.90
5415;DHT22;2730;51.512;7.504;2023-04-01T09:24:52;10.60;99.90
5415;DHT22;2730;51.512;7.504;2023-04-01T09:27:27;10.60;99.90
5415;DHT22;2730;51.512;7.504;2023-04-01T09:36:20;10.70;99.90
5415;DHT22;2730;51.512;7.504;2023-04-01T09:38:56;10.70;99.90
5415;DHT22;2730;51.512;7.504;2023-04-01T09:41:29;10.80;99.90
5415;DHT22;2730;51.512;7.504;2023-04-01T09:44:02;10.80;99.90
5415;DHT22;2730;51.512;7.504;2023-04-01T09:46:46;10.90;99.90
5415;DHT22;2730;51.512;7.504;2023-04-01T09:49:49;10.90;99.90
5415;DHT22;2730;51.512;7.504;2023-04-01T09:52:34;10.90;99.90
5415;DHT22;2730;51.512;7.504;2023-04-01T09:55:23;10.90;99.90
5415;DHT22;2730;51.512;7.504;2023-04-01T10:01:24;10.90;99.90
5415;DHT22;2730;51.512;7.504;2023-04-01T10:07:30;10.90;99.90
5415;DHT22;2730;51.512;7.504;2023-04-01T10:10:19;10.90;99.90
5415;DHT22;2730;51.512;7.504;2023-04-01T10:16:20;10.80;99.90
5415;DHT22;2730;51.512;7.504;2023-04-01T10:22:23;10.90;99.90
5415;DHT22;2730;51.512;7.504;2023-04-01T10:25:18;11.00;99.90
5415;DHT22;2730;51.512;7.504;2023-04-01T10:28:04;11.20;99.90
5415;DHT22;2730;51.512;7.504;2023-04-01T10:31:09;11.30;99.90
5415;DHT22;2730;51.512;7.504;2023-04-01T10:33:50;11.60;99.90
5415;DHT22;2730;51.512;7.504;2023-04-01T10:36:47;11.70;99.90
5415;DHT22;2730;51.512;7.504;2023-04-01T10:39:38;11.80;99.90
5415;DHT22;2730;51.512;7.504;2023-04-01T10:45:50;11.70;99.90
5415;DHT22;2730;51.512;7.504;2023-04-01T10:51:31;11.60;99.90
5415;DHT22;2730;51.512;7.504;2023-04-01T10:54:34;11.60;99.90
5415;DHT22;2730;51.512;7.504;2023-04-01T10:57:13;11.50;99.90
5415;DHT22;2730;51.512;7.504;2023-04-01T11:00:08;11.50;99.90
5415;DHT22;2730;51.512;7.504;2023-04-01T11:05:58;11.80;99.90
5415;DHT22;2730;51.512;7.504;2023-04-01T11:09:04;11.90;99.90
5415;DHT22;2730;51.512;7.504;2023-04-01T11:15:09;11.80;99.90
5415;DHT22;2730;51.512;7.504;2023-04-01T11:18:07;11.80;99.90
5415;DHT22;2730;51.512;7.504;2023-04-01T11:21:04;11.80;99.90
5415;DHT22;2730;51.512;7.504;2023-04-01T11:23:50;11.80;99.90
5415;DHT22;2730;51.512;7.504;2023-04-01T11:26:26;11.80;99.90
5415;DHT22;2730;51.512;7.504;2023-04-01T11:31:51;11.80;99.90
5415;DHT22;2730;51.512;7.504;2023-04-01T11:34:36;11.70;99.90
5415;DHT22;2730;51.512;7.504;2023-04-01T11:37:21;11.50;99.90
5415;DHT22;2730;51.512;7.504;2023-04-01T11:39:59;11.40;99.90
5415;DHT22;2730;51.512;7.504;2023-04-01T11:42:37;11.60;99.90
5415;DHT22;2730;51.512;7.504;2023-04-01T11:45:18;11.60;99.90
5415;DHT22;2730;51.512;7.504;2023-04-01T11:48:00;11.50;99.90
5415;DHT22;2730;51.512;7.504;2023-04-01T11:50:40;11.40;99.90
5415;DHT22;2730;51.512;7.504;2023-04-01T11:53:18;11.40;99.90
5415;DHT22;2730;51.512;7.504;2023-04-01T11:55:56;11.30;99.90
5415;DHT22;2730;51.512;7.504;2023-04-01T11:58:41;11.30;99.90
5415;DHT22;2730;51.512;7.504;2023-04-01T12:01:36;11.40;99.90
5415;DHT22;2730;51.512;7.504;2023-04-01T12:04:33;11.20;99.90
5415;DHT22;2730;51.512;7.504;2023-04-01T12:07:10;11.20;99.90
5415;DHT22;2730;51.512;7.504;2023-04-01T12:09:49;11.10;99.90
5415;DHT22;2730;51.512;7.504;2023-04-01T12:12:27;11.00;99.90
5415;DHT22;2730;51.512;7.504;2023-04-01T12:15:02;10.90;99.90
5415;DHT22;2730;51.512;7.504;2023-04-01T12:17:38;11.00;99.90
5415;DHT22;2730;51.512;7.504;2023-04-01T12:20:25;11.00;99.90
5415;DHT22;2730;51.512;7.504;2023-04-01T12:22:59;11.10;99.90
5415;DHT22;2730;51.512;7.504;2023-04-01T12:25:52;11.00;99.90
5415;DHT22;2730;51.512;7.504;2023-04-01T12:28:24;11.10;99.90
5415;DHT22;2730;51.512;7.504;2023-04-01T12:31:05;11.20;99.90
5415;DHT22;2730;51.512;7.504;2023-04-01T12:33:52;11.20;99.90
5415;DHT22;2730;51.512;7.504;2023-04-01T12:39:22;11.30;99.90
5415;DHT22;2730;51.512;7.504;2023-04-01T12:42:04;11.30;99.90
5415;DHT22;2730;51.512;7.504;2023-04-01T12:44:41;11.20;99.90
5415;DHT22;2730;51.512;7.504;2023-04-01T12:47:55;11.30;99.90
5415;DHT22;2730;51.512;7.504;2023-04-01T12:53:43;11.20;99.90
5415;DHT22;2730;51.512;7.504;2023-04-01T12:56:16;11.20;99.90
5415;DHT22;2730;51.512;7.504;2023-04-01T12:59:09;11.00;99.90
5415;DHT22;2730;51.512;7.504;2023-04-01T13:02:12;11.00;99.90
5415;DHT22;2730;51.512;7.504;2023-04-01T13:05:15;10.90;99.90
5415;DHT22;2730;51.512;7.504;2023-04-01T13:07:55;11.00;99.90
5415;DHT22;2730;51.512;7.504;2023-04-01T13:10:32;11.00;99.90
5415;DHT22;2730;51.512;7.504;2023-04-01T13:13:22;11.10;99.90
5415;DHT22;2730;51.512;7.504;2023-04-01T13:15:54;11.10;99.90
5415;DHT22;2730;51.512;7.504;2023-04-01T13:18:31;11.10;99.90
5415;DHT22;2730;51.512;7.504;2023-04-01T13:21:05;11.20;99.90
5415;DHT22;2730;51.512;7.504;2023-04-01T13:23:47;11.20;99.90
5415;DHT22;2730;51.512;7.504;2023-04-01T13:26:20;11.20;99.90
5415;DHT22;2730;51.512;7.504;2023-04-01T13:28:56;11.20;99.90
5415;DHT22;2730;51.512;7.504;2023-04-01T13:31:54;11.20;99.90
5415;DHT22;2730;51.512;7.504;2023-04-01T13:34:32;11.10;99.90
5415;DHT22;2730;51.512;7.504;2023-04-01T13:37:20;11.10;99.90
5415;DHT22;2730;51.512;7.504;2023-04-01T13:40:02;11.00;99.90
5415;DHT22;2730;51.512;7.504;2023-04-01T13:42:35;11.10;99.90
5415;DHT22;2730;51.512;7.504;2023-04-01T13:45:13;11.20;99.90
5415;DHT22;2730;51.512;7.504;2023-04-01T13:48:10;11.10;99.90
5415;DHT22;2730;51.512;7.504;2023-04-01T13:51:22;11.10;99.90
5415;DHT22;2730;51.512;7.504;2023-04-01T13:57:14;11.10;99.90
5415;DHT22;2730;51.512;7.504;2023-04-01T14:03:15;11.20;99.90
5415;DHT22;2730;51.512;7.504;2023-04-01T14:05:56;11.20;99.90
5415;DHT22;2730;51.512;7.504;2023-04-01T14:11:27;11.30;99.90
5415;DHT22;2730;51.512;7.504;2023-04-01T14:14:04;11.30;99.90
5415;DHT22;2730;51.512;7.504;2023-04-01T14:17:10;11.30;99.90
5415;DHT22;2730;51.512;7.504;2023-04-01T14:19:56;11.10;99.90
5415;DHT22;2730;51.512;7.504;2023-04-01T14:22:39;11.20;99.90
5415;DHT22;2730;51.512;7.504;2023-04-01T14:25:48;11.20;99.90
5415;DHT22;2730;51.512;7.504;2023-04-01T14:28:25;11.40;99.90
5415;DHT22;2730;51.512;7.504;2023-04-01T14:31:04;11.40;99.90
5415;DHT22;2730;51.512;7.504;2023-04-01T14:33:45;11.50;99.90
5415;DHT22;2730;51.512;7.504;2023-04-01T14:36:41;11.50;99.90
5415;DHT22;2730;51.512;7.504;2023-04-01T14:39:26;11.50;99.90
5415;DHT22;2730;51.512;7.504;2023-04-01T14:42:06;11.60;99.90
5415;DHT22;2730;51.512;7.504;2023-04-01T14:47:48;11.50;99.90
5415;DHT22;2730;51.512;7.504;2023-04-01T14:50:18;11.60;99.90
5415;DHT22;2730;51.512;7.504;2023-04-01T14:52:55;11.40;99.90
5415;DHT22;2730;51.512;7.504;2023-04-01T14:55:34;11.30;99.90
5415;DHT22;2730;51.512;7.504;2023-04-01T14:58:11;11.30;99.90
5415;DHT22;2730;51.512;7.504;2023-04-01T15:01:11;11.20;99.90
5415;DHT22;2730;51.512;7.504;2023-04-01T15:03:48;11.30;99.90
5415;DHT22;2730;51.512;7.504;2023-04-01T15:06:36;11.20;99.90
5415;DHT22;2730;51.512;7.504;2023-04-01T15:09:14;11.10;99.90
5415;DHT22;2730;51.512;7.504;2023-04-01T15:11:55;11.10;99.90
5415;DHT22;2730;51.512;7.504;2023-04-01T15:14:51;11.00;99.90
5415;DHT22;2730;51.512;7.504;2023-04-01T15:17:48;11.00;99.90
5415;DHT22;2730;51.512;7.504;2023-04-01T15:20:49;11.00;99.90
5415;DHT22;2730;51.512;7.504;2023-04-01T15:23:28;11.10;99.90
5415;DHT22;2730;51.512;7.504;2023-04-01T15:26:24;11.20;99.90
5415;DHT22;2730;51.512;7.504;2023-04-01T15:29:06;11.20;99.90
5415;DHT22;2730;51.512;7.504;2023-04-01T15:31:40;11.20;99.90
5415;DHT22;2730;51.512;7.504;2023-04-01T15:34:22;11.30;99.90
5415;DHT22;2730;51.512;7.504;2023-04-01T15:36:57;11.30;99.90
5415;DHT22;2730;51.512;7.504;2023-04-01T15:39:44;11.30;99.90
5415;DHT22;2730;51.512;7.504;2023-04-01T15:42:34;11.40;99.90
5415;DHT22;2730;51.512;7.504;2023-04-01T15:45:13;11.40;99.90
5415;DHT22;2730;51.512;7.504;2023-04-01T15:47:45;11.30;99.90
5415;DHT22;2730;51.512;7.504;2023-04-01T15:50:42;11.30;99.90
5415;DHT22;2730;51.512;7.504;2023-04-01T15:53:28;11.30;99.90
5415;DHT22;2730;51.512;7.504;2023-04-01T15:55:59;11.30;99.90
5415;DHT22;2730;51.512;7.504;2023-04-01T15:58:44;11.20;99.90
5415;DHT22;2730;51.512;7.504;2023-04-01T16:01:24;11.20;99.90
5415;DHT22;2730;51.512;7.504;2023-04-01T16:03:56;11.20;99.90
5415;DHT22;2730;51.512;7.504;2023-04-01T16:06:42;11.20;99.90
5415;DHT22;2730;51.512;7.504;2023-04-01T16:09:36;11.20;99.90
5415;DHT22;2730;51.512;7.504;2023-04-01T16:12:15;11.10;99.90
5415;DHT22;2730;51.512;7.504;2023-04-01T16:14:56;11.10;99.90
5415;DHT22;2730;51.512;7.504;2023-04-01T16:17:45;11.10;99.90
5415;DHT22;2730;51.512;7.504;2023-04-01T16:20:19;11.10;99.90
5415;DHT22;2730;51.512;7.504;2023-04-01T16:22:53;10.90;99.90
5415;DHT22;2730;51.512;7.504;2023-04-01T16:25:31;11.00;99.90
5415;DHT22;2730;51.512;7.504;2023-04-01T16:28:09;11.00;99.90
5415;DHT22;2730;51.512;7.504;2023-04-01T16:30:45;11.10;99.90
5415;DHT22;2730;51.512;7.504;2023-04-01T16:33:20;11.00;99.90
5415;DHT22;2730;51.512;7.504;2023-04-01T16:35:54;11.00;99.90
5415;DHT22;2730;51.512;7.504;2023-04-01T16:38:25;11.00;99.90
5415;DHT22;2730;51.512;7.504;2023-04-01T16:41:05;11.10;99.90
5415;DHT22;2730;51.512;7.504;2023-04-01T16:43:39;11.00;99.90
5415;DHT22;2730;51.512;7.504;2023-04-01T16:46:20;11.00;99.90
5415;DHT22;2730;51.512;7.504;2023-04-01T16:48:59;11.00;99.90
5415;DHT22;2730;51.512;7.504;2023-04-01T16:51:34;10.90;99.90
5415;DHT22;2730;51.512;7.504;2023-04-01T16:54:06;11.00;99.90
5415;DHT22;2730;51.512;7.504;2023-04-01T16:56:39;10.90;99.90
5415;DHT22;2730;51.512;7.504;2023-04-01T16:59:17;10.90;99.90
5415;DHT22;2730;51.512;7.504;2023-04-01T17:01:52;10.90;99.90
5415;DHT22;2730;51.512;7.504;2023-04-01T17:04:28;10.90;99.90
5415;DHT22;2730;51.512;7.504;2023-04-01T17:07:05;10.90;99.90
5415;DHT22;2730;51.512;7.504;2023-04-01T17:09:51;10.80;99.90
5415;DHT22;2730;51.512;7.504;2023-04-01T17:12:28;10.80;99.90
5415;DHT22;2730;51.512;7.504;2023-04-01T17:15:04;10.80;99.90
5415;DHT22;2730;51.512;7.504;2023-04-01T17:17:45;10.80;99.90
5415;DHT22;2730;51.512;7.504;2023-04-01T17:20:31;10.80;99.90
5415;DHT22;2730;51.512;7.504;2023-04-01T17:23:01;10.70;99.90
5415;DHT22;2730;51.512;7.504;2023-04-01T17:25:48;10.70;99.90
5415;DHT22;2730;51.512;7.504;2023-04-01T17:28:26;10.60;99.90
5415;DHT22;2730;51.512;7.504;2023-04-01T17:31:00;10.60;99.90
5415;DHT22;2730;51.512;7.504;2023-04-01T17:33:48;10.60;99.90
5415;DHT22;2730;51.512;7.504;2023-04-01T17:36:33;10.60;99.90
5415;DHT22;2730;51.512;7.504;2023-04-01T17:39:27;10.50;99.90
5415;DHT22;2730;51.512;7.504;2023-04-01T17:42:01;10.40;99.90
5415;DHT22;2730;51.512;7.504;2023-04-01T17:44:44;10.50;99.90
5415;DHT22;2730;51.512;7.504;2023-04-01T17:47:25;10.50;99.90
5415;DHT22;2730;51.512;7.504;2023-04-01T17:50:09;10.50;99.90
5415;DHT22;2730;51.512;7.504;2023-04-01T17:52:41;10.50;99.90
5415;DHT22;2730;51.512;7.504;2023-04-01T17:55:43;10.50;99.90
5415;DHT22;2730;51.512;7.504;2023-04-01T17:58:17;10.50;99.90
5415;DHT22;2730;51.512;7.504;2023-04-01T18:00:54;10.50;99.90
5415;DHT22;2730;51.512;7.504;2023-04-01T18:03:46;10.50;99.90
5415;DHT22;2730;51.512;7.504;2023-04-01T18:06:29;10.40;99.90
5415;DHT22;2730;51.512;7.504;2023-04-01T18:09:01;10.40;99.90
5415;DHT22;2730;51.512;7.504;2023-04-01T18:11:39;10.40;99.90
5415;DHT22;2730;51.512;7.504;2023-04-01T18:14:28;10.50;99.90
5415;DHT22;2730;51.512;7.504;2023-04-01T18:17:12;10.50;99.90